Airfield :
LOGIN :

Register | Disclaimer

   EN    FR    IT 

 










Legend :    VFR   Marginal VFR   IFR   Intensive IFR   Very Intensive IFR
Visi :
Ceiling :
>= 8 km
>= 3000ft
5 to 8 km
1000 to 3000 ft
1500m to 5 km
500 to 1000 ft
800 to 1500m
200 to 500 ft
< 800m
< 200 ft
Symbols :   Thunderstorms  Fog  Heavy snow  Heavy precipitations  Wind > 20 kt
SIGMETs :     Misc.  Thunderstorms  Icing  Turbulence  Mountain Waves  Volcanic Ashes






- Airport Elevation : 16 ft
- IATA code : EAS


LESO - San Sebastian Fuenterrabia

CURRENT METAR :
  • 061700Z 28006KT 230V340 9999 SCT015 BKN020 BKN045 18/14 Q1010

EXPIRED METARs :
  • 061630Z 28004KT 210V360 9999 SCT015 SCT020 BKN045 18/15 Q1010
  • 061600Z 30006KT 230V010 9999 SCT015 BKN020 BKN045 18/15 Q1010
  • 061530Z 29007KT 220V340 9999 SCT016 BKN024 BKN045 18/15 Q1010
  • 061500Z 29006KT 240V010 9999 SCT017 BKN024 BKN045 19/15 Q1010
  • 061430Z VRB06KT 9999 SCT015 BKN021 BKN045 19/15 Q1010
  • 061400Z 29007KT 250V330 9999 SCT015 BKN021 BKN045 19/15 Q1010

TAF TAF LESO
Valid from the 06 at 12:00 until the 07 at 12:00 UTC


061100Z 0612/0712 30009KT 9999 SCT015 BKN035 TX21/0613Z TN13/0705Z
PROB40
TEMPO 0612/0710 3000 RADZ BR BKN010
TEMPO 0615/0624 3000 RA SHRA BKN010 SCT030TCU



MET'MAP, your aeronautical weather chart ! - Copyright ORBIFLY December 2007 - Disclaimer

ORBIFLY MET'MAP TEAM :

Programming & Development : Alexandra Zaïnal
Concept & original design : Baudouin d'Aumeries
Assistance for programming : Marc-Olivier Méhu
Technical & hardware support : Manuel Goepfert

Contact : metmap@orbifly.com




SOURCES & CREDITS :

   NOAA